.
WxDataArchive / Data Records for 2008-09-02
2008-09-01 September 2008 2008-09-03

Data Records for Tuesday, 02 September 2008

Time	Temp	Chill	HIndex	Humid	Dewpt	 Wind 	HiWind	WindDir	Rain 	Barom 
-----	----	-----	------	-----	-----	------	------	-------	-----	----- 
00:00	65.8	65.8	65.8	72	56.5	0	1	112	0.00	30.033 
00:05	65.6	65.6	65.6	73	56.7	0	1	112	0.00	30.031 
00:10	65.5	65.5	65.5	73	56.6	0	0	---	0.00	30.028 
00:15	65.3	65.3	65.3	73	56.4	0	0	---	0.00	30.029 
00:20	65.0	65.0	65.0	73	56.1	0	0	---	0.00	30.030 
00:25	64.7	64.7	64.7	74	56.2	0	0	---	0.00	30.029 
00:30	64.5	64.5	64.5	76	56.8	0	0	---	0.00	30.030 
00:35	64.2	64.2	64.2	77	56.8	0	0	---	0.00	30.029 
00:40	64.0	64.0	64.0	77	56.6	0	0	---	0.00	30.028 
00:45	63.7	63.7	63.7	78	56.7	0	0	---	0.00	30.026 
00:50	63.5	63.5	63.5	78	56.5	0	0	---	0.00	30.027 
00:55	63.4	63.4	63.4	79	56.8	0	0	---	0.00	30.025 
01:00	63.2	63.2	63.2	80	56.9	0	0	---	0.00	30.026 
01:05	63.1	63.1	63.1	81	57.2	0	0	---	0.00	30.024 
01:10	62.9	62.9	62.9	81	57.0	0	0	---	0.00	30.024 
01:15	62.7	62.7	62.7	82	57.1	0	0	---	0.00	30.024 
01:20	62.7	62.7	62.7	82	57.1	0	0	---	0.00	30.023 
01:25	62.6	62.6	62.6	83	57.4	0	0	---	0.00	30.022 
01:30	62.4	62.4	62.4	83	57.2	0	0	---	0.00	30.018 
01:35	62.4	62.4	62.4	83	57.2	0	0	---	0.00	30.020 
01:40	62.4	62.4	62.4	83	57.2	0	0	---	0.00	30.018 
01:45	62.3	62.3	62.3	84	57.4	0	0	---	0.00	30.018 
01:50	62.1	62.1	62.1	84	57.2	0	0	---	0.00	30.018 
01:55	62.1	62.1	62.1	85	57.5	0	0	---	0.00	30.018 
02:00	62.0	62.0	62.0	85	57.4	0	0	---	0.00	30.017 
02:05	62.0	62.0	62.0	86	57.8	0	0	---	0.00	30.015 
02:10	61.8	61.8	61.8	86	57.6	0	0	---	0.00	30.014 
02:15	61.8	61.8	61.8	87	57.9	0	0	---	0.00	30.012 
02:20	61.8	61.8	61.8	87	57.9	0	0	---	0.00	30.011 
02:25	61.6	61.6	61.6	87	57.7	0	0	---	0.00	30.010 
02:30	61.6	61.6	61.6	87	57.7	0	0	---	0.00	30.010 
02:35	61.5	61.5	61.5	88	57.9	0	0	---	0.00	30.009 
02:40	61.5	61.5	61.5	88	57.9	0	0	---	0.00	30.010 
02:45	61.5	61.5	61.5	88	57.9	0	0	---	0.00	30.012 
02:50	61.3	61.3	61.3	88	57.7	0	0	---	0.00	30.015 
02:55	61.3	61.3	61.3	88	57.7	0	0	---	0.00	30.013 
03:00	61.3	61.3	61.3	88	57.7	0	0	---	0.00	30.014 
03:05	61.2	61.2	61.2	89	57.9	0	0	---	0.00	30.017 
03:10	61.2	61.2	61.2	89	57.9	0	0	---	0.00	30.020 
03:15	61.0	61.0	61.0	89	57.7	0	0	---	0.00	30.021 
03:20	61.0	61.0	61.0	89	57.7	0	0	---	0.00	30.023 
03:25	60.9	60.9	60.9	90	57.9	0	0	---	0.00	30.023 
03:30	60.9	60.9	60.9	90	57.9	0	0	---	0.00	30.024 
03:35	60.9	60.9	60.9	90	57.9	0	0	---	0.00	30.023 
03:40	60.9	60.9	60.9	91	58.3	0	0	---	0.00	30.023 
03:45	61.0	61.0	61.0	91	58.4	0	0	---	0.00	30.024 
03:50	61.2	61.2	61.2	91	58.5	0	0	---	0.00	30.023 
03:55	61.2	61.2	61.2	91	58.5	0	0	---	0.00	30.020 
04:00	61.2	61.2	61.2	91	58.5	0	0	---	0.00	30.020 
04:05	61.2	61.2	61.2	91	58.5	0	0	---	0.00	30.024 
04:10	61.2	61.2	61.2	91	58.5	0	0	---	0.00	30.024 
04:15	61.2	61.2	61.2	91	58.5	0	0	---	0.00	30.023 
04:20	61.0	61.0	61.0	91	58.4	0	0	---	0.00	30.023 
04:25	61.0	61.0	61.0	91	58.4	0	0	---	0.00	30.024 
04:30	61.0	61.0	61.0	91	58.4	0	0	---	0.00	30.025 
04:35	60.9	60.9	60.9	91	58.3	0	0	---	0.00	30.025 
04:40	60.9	60.9	60.9	91	58.3	0	0	---	0.00	30.026 
04:45	60.7	60.7	60.7	91	58.1	0	0	---	0.00	30.026 
04:50	60.7	60.7	60.7	91	58.1	0	0	---	0.00	30.026 
04:55	60.7	60.7	60.7	92	58.4	0	0	---	0.00	30.026 
05:00	60.7	60.7	60.7	92	58.4	0	0	---	0.00	30.026 
05:05	60.7	60.7	60.7	92	58.4	0	0	---	0.00	30.029 
05:10	60.7	60.7	60.7	92	58.4	0	0	---	0.00	30.029 
05:15	60.9	60.9	60.9	92	58.6	0	0	---	0.00	30.029 
05:20	61.0	61.0	61.0	92	58.7	0	0	---	0.00	30.029 
05:25	61.0	61.0	61.0	92	58.7	0	0	---	0.00	30.029 
05:30	60.9	60.9	60.9	92	58.6	0	0	---	0.00	30.029 
05:35	60.9	60.9	60.9	92	58.6	0	0	---	0.00	30.030 
05:40	60.9	60.9	60.9	92	58.6	0	0	---	0.00	30.030 
05:45	60.7	60.7	60.7	92	58.4	0	0	---	0.00	30.030 
05:50	60.7	60.7	60.7	92	58.4	0	0	---	0.00	30.030 
05:55	60.7	60.7	60.7	92	58.4	0	0	---	0.00	30.030 
06:00	60.5	60.5	60.5	92	58.2	0	0	---	0.00	30.035 
06:05	60.5	60.5	60.5	92	58.2	0	0	---	0.00	30.039 
06:10	60.5	60.5	60.5	92	58.2	0	0	---	0.00	30.042 
06:15	60.7	60.7	60.7	92	58.4	0	0	---	0.00	30.043 
06:20	60.7	60.7	60.7	92	58.4	0	0	---	0.00	30.043 
06:25	60.9	60.9	60.9	93	58.9	0	0	---	0.00	30.046 
06:30	61.3	61.3	61.3	93	59.3	0	1	112	0.00	30.046 
06:35	62.1	62.1	62.1	93	60.0	1	3	112	0.00	30.046 
06:40	62.4	62.4	62.4	92	60.0	0	2	112	0.00	30.047 
06:45	62.9	62.9	62.9	91	60.2	0	1	112	0.00	30.046 
06:50	63.2	63.2	63.2	90	60.2	0	1	112	0.00	30.046 
06:55	63.4	63.4	63.4	89	60.1	0	2	112	0.00	30.046 
07:00	63.7	63.7	63.7	88	60.1	1	2	112	0.00	30.048 
07:05	63.9	63.9	63.9	88	60.3	1	3	112	0.00	30.051 
07:10	64.2	64.2	64.2	88	60.6	0	2	112	0.00	30.053 
07:15	64.5	64.5	64.5	87	60.5	1	2	112	0.00	30.053 
07:20	65.0	65.0	65.0	86	60.7	1	3	112	0.00	30.052 
07:25	65.3	65.3	65.3	85	60.7	1	3	112	0.00	30.053 
07:30	65.8	65.8	65.8	84	60.8	0	2	112	0.00	30.052 
07:35	66.1	66.1	66.1	84	61.1	0	2	112	0.00	30.054 
07:40	66.4	66.4	66.4	83	61.1	0	2	112	0.00	30.058 
07:45	66.8	66.8	66.8	82	61.1	2	4	112	0.00	30.059 
07:50	67.1	67.1	67.1	82	61.4	1	4	90	0.00	30.058 
07:55	67.3	67.3	67.3	81	61.3	0	3	90	0.00	30.058 
08:00	67.6	67.6	67.6	80	61.2	1	3	90	0.00	30.054 
08:05	67.9	67.9	67.9	80	61.5	1	3	90	0.00	30.059 
08:10	68.1	68.1	68.1	79	61.3	2	3	90	0.00	30.060 
08:15	68.3	68.3	68.3	80	61.9	1	3	68	0.00	30.058 
08:20	68.6	68.6	68.6	79	61.8	1	2	68	0.00	30.059 
08:25	69.1	69.1	69.1	78	61.9	1	3	68	0.00	30.058 
08:30	69.4	69.4	69.4	78	62.2	1	5	68	0.00	30.056 
08:35	69.6	69.6	69.6	77	62.1	1	5	90	0.00	30.055 
08:40	70.1	70.1	70.1	76	62.2	2	4	90	0.00	30.055 
08:45	70.3	70.3	70.3	76	62.4	1	3	90	0.00	30.055 
08:50	70.6	70.6	70.6	76	62.7	1	3	90	0.00	30.053 
08:55	71.3	71.3	71.3	75	63.0	0	2	112	0.00	30.049 
09:00	71.8	71.8	71.8	73	62.7	1	3	112	0.00	30.047 
09:05	72.7	72.7	72.7	72	63.1	1	4	90	0.00	30.048 
09:10	73.5	73.5	73.5	71	63.5	1	4	90	0.00	30.049 
09:15	74.4	74.4	74.4	69	63.5	1	4	90	0.00	30.047 
09:20	75.3	75.3	77.2	67	63.6	1	4	90	0.00	30.047 
09:25	76.1	76.1	77.9	66	63.9	1	3	90	0.00	30.046 
09:30	76.7	76.7	78.5	65	64.0	2	4	90	0.00	30.045 
09:35	77.2	77.2	79.0	65	64.5	2	3	90	0.00	30.045 
09:40	77.7	77.7	79.5	64	64.5	1	3	112	0.00	30.043 
09:45	78.3	78.3	80.1	63	64.6	2	4	112	0.00	30.042 
09:50	78.6	78.6	80.4	63	64.9	2	5	68	0.00	30.041 
09:55	79.4	79.4	81.3	62	65.2	0	2	90	0.00	30.041 
10:00	80.5	80.5	82.5	61	65.8	1	5	112	0.00	30.039 
10:05	81.1	81.1	83.2	60	65.9	1	3	90	0.00	30.038 
10:10	81.4	81.4	83.4	59	65.7	1	3	90	0.00	30.038 
10:15	81.8	81.8	84.1	60	66.5	0	3	90	0.00	30.038 
10:20	82.6	82.6	84.9	58	66.3	0	2	90	0.00	30.037 
10:25	83.4	83.4	85.8	57	66.5	0	2	90	0.00	30.035 
10:30	83.8	83.8	86.2	56	66.4	1	4	90	0.00	30.030 
10:35	84.0	84.0	86.7	57	67.1	0	3	90	0.00	30.026 
10:40	84.5	84.5	87.0	55	66.5	1	2	90	0.00	30.024 
10:45	84.7	84.7	87.3	55	66.7	1	3	90	0.00	30.023 
10:50	84.7	84.7	87.9	57	67.7	1	3	90	0.00	30.022 
10:55	85.1	85.1	87.9	55	67.1	0	3	112	0.00	30.023 
11:00	85.7	85.7	88.9	55	67.6	0	2	112	0.00	30.020 
11:05	86.1	86.1	89.2	54	67.5	1	3	135	0.00	30.021 
11:10	86.3	86.3	89.6	54	67.7	1	3	135	0.00	30.020 
11:15	86.7	86.7	89.9	53	67.5	1	3	135	0.00	30.016 
11:20	87.2	87.2	90.4	52	67.4	0	2	90	0.00	30.013 
11:25	87.8	87.8	91.4	52	67.9	1	3	90	0.00	30.009 
11:30	87.8	87.8	91.4	52	67.9	2	5	90	0.00	30.007 
11:35	87.6	87.6	91.5	53	68.3	2	5	68	0.00	30.004 
11:40	87.6	87.6	91.1	52	67.8	2	5	90	0.00	30.005 
11:45	87.8	87.8	91.4	52	67.9	1	4	112	0.00	30.002 
11:50	88.2	88.2	92.1	52	68.3	1	4	112	0.00	30.000 
11:55	88.6	88.6	92.5	51	68.1	1	7	90	0.00	29.997 
12:00	89.0	89.0	92.8	50	67.9	1	4	90	0.00	29.995 
12:05	89.3	89.3	93.3	50	68.2	0	2	90	0.00	29.994 
12:10	89.9	89.9	93.5	48	67.5	1	4	90	0.00	29.992 
12:15	89.7	89.7	93.6	49	68.0	2	5	90	0.00	29.992 
12:20	89.5	89.5	93.2	49	67.8	1	5	90	0.00	29.992 
12:25	89.3	89.3	92.5	48	67.0	2	5	68	0.00	29.991 
12:30	89.5	89.5	92.8	48	67.2	1	4	112	0.00	29.988 
12:35	90.1	90.1	93.5	47	67.1	1	6	112	0.00	29.988 
12:40	90.3	90.3	93.4	46	66.7	1	4	90	0.00	29.987 
12:45	90.3	90.3	93.8	47	67.3	1	3	90	0.00	29.984 
12:50	90.7	90.7	94.1	46	67.0	1	3	90	0.00	29.981 
12:55	91.0	91.0	93.8	44	66.0	1	6	90	0.00	29.978 
13:00	91.4	91.4	94.0	43	65.7	2	5	90	0.00	29.975 
13:05	91.4	91.4	93.6	42	65.0	1	4	90	0.00	29.976 
13:10	91.4	91.4	94.0	43	65.7	0	3	90	0.00	29.976 
13:15	91.2	91.2	93.7	43	65.5	1	3	90	0.00	29.975 
13:20	91.0	91.0	94.2	45	66.7	1	2	90	0.00	29.975 
13:25	91.4	91.4	94.0	43	65.7	1	5	90	0.00	29.975 
13:30	91.6	91.6	93.9	42	65.2	1	4	135	0.00	29.974 
13:35	91.8	91.8	93.9	41	64.7	0	3	112	0.00	29.973 
13:40	92.3	92.3	94.3	40	64.4	0	3	112	0.00	29.973 
13:45	92.7	92.7	94.5	39	64.1	1	4	90	0.00	29.971 
13:50	92.3	92.3	95.1	42	65.8	1	3	90	0.00	29.965 
13:55	92.5	92.5	95.0	41	65.3	1	4	90	0.00	29.962 
14:00	92.3	92.3	95.1	42	65.8	2	5	90	0.00	29.962 
14:05	92.5	92.5	94.6	40	64.6	2	5	90	0.00	29.960 
14:10	92.3	92.3	94.3	40	64.4	1	5	90	0.00	29.962 
14:15	92.7	92.7	94.9	40	64.8	1	3	135	0.00	29.959 
14:20	92.7	92.7	94.1	38	63.3	1	4	90	0.00	29.959 
14:25	92.9	92.9	94.0	37	62.7	0	1	90	0.00	29.959 
14:30	92.7	92.7	94.1	38	63.3	0	2	90	0.00	29.957 
14:35	92.9	92.9	93.2	35	61.2	1	2	68	0.00	29.956 
14:40	93.4	93.4	94.0	35	61.6	1	3	90	0.00	29.953 
14:45	93.4	93.4	93.6	34	60.8	1	3	90	0.00	29.949 
14:50	93.8	93.8	93.1	31	58.5	1	3	338	0.00	29.946 
14:55	94.0	94.0	93.0	30	57.8	1	3	248	0.00	29.945 
15:00	94.5	94.5	93.7	30	58.2	0	1	248	0.00	29.944 
15:05	94.7	94.7	94.0	30	58.4	1	3	248	0.00	29.943 
15:10	94.7	94.7	94.0	30	58.4	1	3	248	0.00	29.942 
15:15	94.5	94.5	93.4	29	57.3	0	2	315	0.00	29.941 
15:20	94.5	94.5	92.7	27	55.3	1	4	270	0.00	29.940 
15:25	94.9	94.9	93.6	28	56.6	0	3	270	0.00	29.939 
15:30	94.9	94.9	92.9	26	54.6	1	3	270	0.00	29.937 
15:35	95.1	95.1	92.9	25	53.7	0	2	270	0.00	29.936 
15:40	95.1	95.1	93.5	27	55.8	0	3	270	0.00	29.936 
15:45	94.9	94.9	93.2	27	55.6	1	4	270	0.00	29.937 
15:50	94.3	94.3	92.8	28	56.1	1	2	270	0.00	29.936 
15:55	94.0	94.0	92.4	28	55.9	1	3	270	0.00	29.936 
16:00	94.0	94.0	92.4	28	55.9	0	2	112	0.00	29.935 
16:05	94.0	94.0	92.4	28	55.9	1	3	315	0.00	29.935 
16:10	93.8	93.8	91.5	26	53.7	1	2	315	0.00	29.934 
16:15	93.6	93.6	92.1	29	56.5	1	2	315	0.00	29.934 
16:20	93.4	93.4	91.9	29	56.3	0	2	292	0.00	29.934 
16:25	93.6	93.6	92.1	29	56.5	0	1	292	0.00	29.931 
16:30	92.9	92.9	91.5	30	56.8	1	2	292	0.00	29.930 
16:35	92.5	92.5	91.3	31	57.4	0	2	292	0.00	29.930 
16:40	92.5	92.5	91.6	32	58.3	0	1	292	0.00	29.930 
16:45	92.5	92.5	91.0	30	56.5	0	1	292	0.00	29.929 
16:50	92.7	92.7	91.3	30	56.7	0	1	292	0.00	29.928 
16:55	92.7	92.7	91.6	31	57.6	0	2	292	0.00	29.927 
17:00	92.7	92.7	91.9	32	58.5	0	1	292	0.00	29.926 
17:05	92.7	92.7	91.9	32	58.5	0	1	292	0.00	29.925 
17:10	92.5	92.5	91.9	33	59.2	0	2	292	0.00	29.924 
17:15	92.3	92.3	91.3	32	58.1	0	1	338	0.00	29.926 
17:20	92.1	92.1	91.1	32	58.0	0	1	338	0.00	29.927 
17:25	92.1	92.1	90.8	31	57.1	0	1	338	0.00	29.928 
17:30	91.8	91.8	89.6	28	54.0	0	1	338	0.00	29.927 
17:35	91.8	91.8	89.6	28	54.0	0	1	338	0.00	29.926 
17:40	91.8	91.8	89.8	29	55.0	0	1	338	0.00	29.924 
17:45	91.8	91.8	89.6	28	54.0	0	1	338	0.00	29.924 
17:50	91.8	91.8	89.4	27	53.0	0	1	338	0.00	29.923 
17:55	91.6	91.6	89.1	27	52.8	0	1	338	0.00	29.922 
18:00	91.4	91.4	89.1	28	53.7	0	1	338	0.00	29.921 
18:05	91.2	91.2	88.9	28	53.5	0	0	---	0.00	29.919 
18:10	91.0	91.0	88.6	28	53.3	0	1	338	0.00	29.919 
18:15	90.7	90.7	88.3	28	53.1	0	0	---	0.00	29.919 
18:20	90.3	90.3	88.1	29	53.7	0	0	---	0.00	29.921 
18:25	89.9	89.9	87.8	30	54.3	0	0	---	0.00	29.921 
18:30	89.5	89.5	87.4	30	53.9	0	0	---	0.00	29.922 
18:35	89.0	89.0	87.0	31	54.4	0	0	---	0.00	29.924 
18:40	88.6	88.6	86.7	32	54.9	0	0	---	0.00	29.922 
18:45	88.2	88.2	86.5	33	55.4	0	0	---	0.00	29.921 
18:50	87.6	87.6	86.0	34	55.7	0	0	---	0.00	29.921 
18:55	87.2	87.2	85.8	35	56.2	0	0	---	0.00	29.922 
19:00	86.5	86.5	86.0	40	59.3	0	0	---	0.00	29.923 
19:05	85.7	85.7	84.9	39	57.9	0	0	---	0.00	29.922 
19:10	85.1	85.1	84.6	41	58.7	0	0	---	0.00	29.925 
19:15	84.3	84.3	83.9	42	58.7	0	0	---	0.00	29.926 
19:20	83.6	83.6	83.2	42	58.0	0	0	---	0.00	29.927 
19:25	82.8	82.8	82.9	45	59.3	0	0	---	0.00	29.929 
19:30	82.2	82.2	82.3	45	58.7	0	0	---	0.00	29.931 
19:35	81.6	81.6	81.9	47	59.4	0	0	---	0.00	29.932 
19:40	81.1	81.1	81.6	48	59.5	0	0	---	0.00	29.933 
19:45	80.5	80.5	81.3	50	60.1	0	0	---	0.00	29.933 
19:50	80.1	80.1	81.0	51	60.3	0	0	---	0.00	29.934 
19:55	79.6	79.6	80.6	52	60.4	0	0	---	0.00	29.934 
20:00	79.2	79.2	80.4	54	61.1	0	0	---	0.00	29.939 
20:05	78.6	78.6	80.0	55	61.1	0	0	---	0.00	29.937 
20:10	78.3	78.3	79.8	56	61.3	0	0	---	0.00	29.939 
20:15	77.9	77.9	79.5	57	61.4	0	0	---	0.00	29.944 
20:20	77.6	77.6	79.2	57	61.1	0	0	---	0.00	29.945 
20:25	77.2	77.2	78.9	58	61.3	0	0	---	0.00	29.947 
20:30	76.8	76.8	78.6	59	61.4	0	0	---	0.00	29.947 
20:35	76.5	76.5	78.4	60	61.6	0	1	338	0.00	29.949 
20:40	76.1	76.1	78.1	60	61.2	0	0	---	0.00	29.950 
20:45	76.0	76.0	78.0	61	61.6	0	0	---	0.00	29.949 
20:50	75.6	75.6	77.7	62	61.6	0	0	---	0.00	29.949 
20:55	75.4	75.4	77.5	62	61.5	0	0	---	0.00	29.952 
21:00	75.1	75.1	77.3	63	61.6	0	0	---	0.00	29.951 
21:05	74.9	74.9	74.9	63	61.4	0	0	---	0.00	29.944 
21:10	74.7	74.7	74.7	65	62.1	0	0	---	0.00	29.943 
21:15	74.6	74.6	74.6	65	62.0	0	0	---	0.00	29.943 
21:20	74.4	74.4	74.4	66	62.3	0	0	---	0.00	29.944 
21:25	74.2	74.2	74.2	66	62.1	0	1	338	0.00	29.951 
21:30	74.2	74.2	74.2	67	62.5	0	0	---	0.00	29.952 
21:35	74.0	74.0	74.0	67	62.3	0	0	---	0.00	29.952 
21:40	73.9	73.9	73.9	67	62.2	0	1	338	0.00	29.956 
21:45	73.9	73.9	73.9	66	61.8	0	0	---	0.00	29.954 
21:50	74.0	74.0	74.0	64	61.0	0	3	0	0.00	29.954 
21:55	74.6	74.6	74.6	63	61.2	0	2	0	0.00	29.954 
22:00	74.9	74.9	74.9	63	61.4	0	1	0	0.00	29.953 
22:05	74.9	74.9	74.9	63	61.4	0	0	---	0.00	29.951 
22:10	74.7	74.7	74.7	63	61.2	0	0	---	0.00	29.949 
22:15	74.4	74.4	74.4	64	61.4	0	0	---	0.00	29.952 
22:20	74.2	74.2	74.2	64	61.2	0	0	---	0.00	29.952 
22:25	73.9	73.9	73.9	65	61.4	0	0	---	0.00	29.952 
22:30	73.5	73.5	73.5	65	61.0	0	0	---	0.00	29.953 
22:35	73.2	73.2	73.2	65	60.7	0	0	---	0.00	29.954 
22:40	73.0	73.0	73.0	65	60.5	0	1	0	0.00	29.955 
22:45	73.0	73.0	73.0	64	60.1	0	1	0	0.00	29.953 
22:50	73.0	73.0	73.0	64	60.1	0	1	0	0.00	29.952 
22:55	73.0	73.0	73.0	63	59.6	0	1	0	0.00	29.950 
23:00	73.0	73.0	73.0	63	59.6	0	1	0	0.00	29.950 
23:05	73.2	73.2	73.2	62	59.4	0	1	0	0.00	29.947 
23:10	73.3	73.3	73.3	62	59.5	0	2	0	0.00	29.945 
23:15	73.3	73.3	73.3	62	59.5	0	2	0	0.00	29.946 
23:20	73.2	73.2	73.2	63	59.8	0	0	---	0.00	29.944 
23:25	73.0	73.0	73.0	63	59.6	0	1	0	0.00	29.944 
23:30	72.7	72.7	72.7	63	59.4	0	1	0	0.00	29.944 
23:35	72.5	72.5	72.5	63	59.2	0	1	0	0.00	29.942 
23:40	72.3	72.3	72.3	64	59.4	0	0	---	0.00	29.942 
23:45	72.0	72.0	72.0	64	59.1	0	0	---	0.00	29.941 
23:50	71.6	71.6	71.6	64	58.8	0	0	---	0.00	29.942 
23:55	71.5	71.5	71.5	65	59.1	0	0	---	0.00	29.942 

CoCoRaHS
IN-AL-39
A2 Web Hosting
Creative Commons License
GoDaddy
Look for:

loaded 2017-12-12 17:13:58 • last modified 2010-11-18 10:43:29
Privacy PolicyDisclaimer
• wx.awcolley.com is powered by PmWiki v.2002016 •
• all content (unless otherwise noted) © 2017 A W Colley